createdAt,value
2018-06-25T00:00:20.242Z,21.11
2018-06-25T00:01:20.037Z,21.06
2018-06-25T00:02:20.135Z,21.06
2018-06-25T00:03:20.014Z,21.06
2018-06-25T00:04:20.073Z,21.06
2018-06-25T00:05:20.095Z,21.08
2018-06-25T00:06:20.137Z,21.08
2018-06-25T00:07:20.071Z,21.08
2018-06-25T00:08:20.125Z,21.06
2018-06-25T00:09:20.193Z,21.08
2018-06-25T00:10:20.217Z,21.05
2018-06-25T00:11:20.014Z,21.06
2018-06-25T00:12:20.076Z,21.06
2018-06-25T00:13:20.142Z,21.08
2018-06-25T00:14:20.165Z,21.06
2018-06-25T00:15:20.387Z,21.06
2018-06-25T00:16:20.237Z,21.08
2018-06-25T00:17:20.064Z,21.08
2018-06-25T00:18:20.261Z,21.08
2018-06-25T00:19:20.197Z,21.06
2018-06-25T00:20:20.101Z,21.06
2018-06-25T00:21:20.029Z,21.03
2018-06-25T00:22:20.014Z,21.05
2018-06-25T00:23:20.028Z,21.05
2018-06-25T00:24:20.181Z,21.06
2018-06-25T00:25:20.190Z,21.08
2018-06-25T00:26:20.059Z,21.03
2018-06-25T00:27:20.133Z,21.06
2018-06-25T00:28:20.071Z,21.05
2018-06-25T00:29:20.035Z,21.08
2018-06-25T00:30:20.180Z,21.03
2018-06-25T00:31:19.996Z,21.03
2018-06-25T00:32:20.015Z,21.05
2018-06-25T00:33:20.123Z,21.03
2018-06-25T00:34:20.298Z,21.03
2018-06-25T00:35:20.066Z,21.03
2018-06-25T00:36:20.068Z,21.05
2018-06-25T00:37:20.156Z,21.05
2018-06-25T00:38:20.158Z,21.03
2018-06-25T00:39:20.203Z,21.03
2018-06-25T00:40:20.033Z,21.03
2018-06-25T00:41:20.037Z,21.01
2018-06-25T00:42:20.198Z,21.03
2018-06-25T00:43:20.192Z,21.02
2018-06-25T00:44:20.425Z,21.01
2018-06-25T00:45:20.134Z,21.02
2018-06-25T00:46:20.033Z,21.01
2018-06-25T00:47:20.194Z,21.02
2018-06-25T00:48:20.145Z,21.02
2018-06-25T00:49:19.995Z,20.99
2018-06-25T00:50:20.441Z,21.01
2018-06-25T00:51:20.226Z,20.99
2018-06-25T00:52:20.212Z,20.99
2018-06-25T00:53:19.979Z,21.01
2018-06-25T00:54:20.172Z,21.01
2018-06-25T00:55:20.116Z,21.01
2018-06-25T00:56:20.122Z,20.99
2018-06-25T00:57:20.215Z,20.99
2018-06-25T00:58:20.115Z,21.01
2018-06-25T00:59:20.196Z,20.99
2018-06-25T01:00:20.202Z,20.99
2018-06-25T01:01:20.077Z,21.01
2018-06-25T01:02:20.401Z,20.99
2018-06-25T01:03:20.187Z,20.99
2018-06-25T01:04:20.113Z,21.01
2018-06-25T01:05:20.066Z,20.98
2018-06-25T01:06:20.270Z,20.99
2018-06-25T01:07:20.056Z,20.99
2018-06-25T01:08:20.172Z,20.97
2018-06-25T01:09:19.995Z,20.99
2018-06-25T01:10:19.992Z,20.99
2018-06-25T01:11:20.177Z,20.98
2018-06-25T01:12:20.080Z,20.98
2018-06-25T01:13:20.154Z,20.99
2018-06-25T01:14:20.125Z,21.01
2018-06-25T01:15:20.171Z,20.98
2018-06-25T01:16:19.991Z,20.99
2018-06-25T01:17:20.224Z,20.97
2018-06-25T01:18:20.107Z,20.98
2018-06-25T01:19:20.050Z,20.99
2018-06-25T01:20:20.239Z,20.98
2018-06-25T01:21:20.301Z,20.97
2018-06-25T01:22:20.117Z,20.98
2018-06-25T01:23:20.134Z,20.99
2018-06-25T01:24:20.087Z,20.98
2018-06-25T01:25:20.374Z,20.98
2018-06-25T01:26:20.013Z,20.98
2018-06-25T01:27:20.146Z,20.98
2018-06-25T01:28:20.007Z,20.99
2018-06-25T01:29:20.166Z,20.95
2018-06-25T01:30:20.169Z,20.97
2018-06-25T01:31:20.194Z,20.97
2018-06-25T01:32:20.009Z,20.95
2018-06-25T01:33:20.145Z,20.97
2018-06-25T01:34:19.989Z,20.97
2018-06-25T01:35:20.015Z,20.98
2018-06-25T01:36:20.042Z,20.98
2018-06-25T01:37:20.226Z,20.97
2018-06-25T01:38:20.142Z,20.98
2018-06-25T01:39:20.211Z,20.97
2018-06-25T01:40:20.195Z,20.97
2018-06-25T01:41:20.147Z,20.95
2018-06-25T01:42:20.139Z,20.97
2018-06-25T01:43:19.987Z,20.95
2018-06-25T01:44:20.013Z,20.95
2018-06-25T01:45:20.079Z,20.97
2018-06-25T01:46:20.271Z,20.97
2018-06-25T01:47:20.313Z,20.95
2018-06-25T01:48:20.232Z,20.94
2018-06-25T01:49:20.242Z,20.95
2018-06-25T01:50:20.207Z,20.91
2018-06-25T01:51:20.281Z,20.95
2018-06-25T01:52:20.043Z,20.95
2018-06-25T01:53:20.080Z,20.95
2018-06-25T01:54:20.223Z,20.92
2018-06-25T01:55:20.143Z,20.94
2018-06-25T01:56:20.102Z,20.94
2018-06-25T01:57:20.151Z,20.92
2018-06-25T01:58:20.086Z,20.92
2018-06-25T01:59:20.195Z,20.91
2018-06-25T02:00:20.056Z,20.92
2018-06-25T02:01:20.423Z,20.94
2018-06-25T02:02:20.323Z,20.92
2018-06-25T02:03:19.994Z,20.94
2018-06-25T02:04:20.526Z,20.92
2018-06-25T02:05:20.118Z,20.92
2018-06-25T02:06:20.027Z,20.94
2018-06-25T02:07:20.211Z,20.92
2018-06-25T02:08:20.056Z,20.91
2018-06-25T02:09:20.236Z,20.95
2018-06-25T02:10:19.983Z,20.95
2018-06-25T02:11:20.180Z,20.91
2018-06-25T02:12:20.106Z,20.95
2018-06-25T02:13:20.460Z,20.94
2018-06-25T02:14:19.987Z,20.94
2018-06-25T02:15:20.582Z,20.92
2018-06-25T02:16:20.160Z,20.92
2018-06-25T02:17:20.098Z,20.94
2018-06-25T02:18:20.027Z,20.95
2018-06-25T02:19:20.395Z,20.94
2018-06-25T02:20:20.184Z,20.92
2018-06-25T02:21:20.143Z,20.89
2018-06-25T02:22:20.071Z,20.92
2018-06-25T02:23:20.225Z,20.91
2018-06-25T02:24:19.932Z,20.91
2018-06-25T02:25:20.122Z,20.89
2018-06-25T02:26:20.208Z,20.91
2018-06-25T02:27:20.281Z,20.89
2018-06-25T02:28:20.028Z,20.92
2018-06-25T02:29:20.754Z,20.92
2018-06-25T02:30:20.256Z,20.91
2018-06-25T02:31:20.204Z,20.92
2018-06-25T02:32:20.074Z,20.92
2018-06-25T02:33:20.286Z,20.92
2018-06-25T02:34:20.959Z,20.89
2018-06-25T02:35:20.422Z,20.91
2018-06-25T02:36:20.004Z,20.91
2018-06-25T02:37:20.306Z,20.91
2018-06-25T02:38:20.137Z,20.91
2018-06-25T02:39:20.031Z,20.89
2018-06-25T02:40:20.131Z,20.91
2018-06-25T02:41:19.997Z,20.91
2018-06-25T02:42:20.067Z,20.89
2018-06-25T02:43:20.137Z,20.92
2018-06-25T02:44:19.997Z,20.91
2018-06-25T02:45:20.175Z,20.92
2018-06-25T02:46:20.088Z,20.91
2018-06-25T02:47:20.242Z,20.91
2018-06-25T02:48:19.904Z,20.89
2018-06-25T02:49:20.140Z,20.89
2018-06-25T02:50:19.951Z,20.87
2018-06-25T02:51:20.181Z,20.92
2018-06-25T02:52:20.582Z,20.91
2018-06-25T02:53:19.984Z,20.89
2018-06-25T02:54:20.190Z,20.88
2018-06-25T02:55:20.097Z,20.91
2018-06-25T02:56:20.238Z,20.89
2018-06-25T02:57:20.195Z,20.89
2018-06-25T02:58:20.169Z,20.89
2018-06-25T02:59:20.907Z,20.91
2018-06-25T03:00:19.952Z,20.92
2018-06-25T03:01:20.189Z,20.89
2018-06-25T03:02:20.288Z,20.91
2018-06-25T03:03:20.226Z,20.91
2018-06-25T03:04:20.022Z,20.89
2018-06-25T03:05:20.008Z,20.91
2018-06-25T03:06:20.456Z,20.91
2018-06-25T03:07:20.113Z,20.89
2018-06-25T03:08:20.067Z,20.91
2018-06-25T03:09:20.248Z,20.88
2018-06-25T03:10:20.194Z,20.87
2018-06-25T03:11:20.109Z,20.88
2018-06-25T03:12:20.024Z,20.88
2018-06-25T03:13:20.180Z,20.89
2018-06-25T03:14:20.035Z,20.88
2018-06-25T03:15:20.067Z,20.89
2018-06-25T03:16:19.974Z,20.88
2018-06-25T03:17:20.236Z,20.85
2018-06-25T03:18:20.146Z,20.88
2018-06-25T03:19:20.169Z,20.88
2018-06-25T03:20:20.268Z,20.89
2018-06-25T03:21:20.034Z,20.88
2018-06-25T03:22:20.174Z,20.88
2018-06-25T03:23:20.118Z,20.88
2018-06-25T03:24:20.331Z,20.88
2018-06-25T03:25:20.082Z,20.89
2018-06-25T03:26:20.135Z,20.89
2018-06-25T03:27:20.179Z,20.87
2018-06-25T03:28:20.166Z,20.88
2018-06-25T03:29:19.996Z,20.88
2018-06-25T03:30:20.217Z,20.89
2018-06-25T03:31:20.148Z,20.87
2018-06-25T03:32:20.043Z,20.88
2018-06-25T03:33:19.996Z,20.89
2018-06-25T03:34:20.182Z,20.87
2018-06-25T03:35:45.504Z,20.88
2018-06-25T03:36:20.089Z,20.91
2018-06-25T03:37:20.237Z,20.88
2018-06-25T03:38:19.928Z,20.87
2018-06-25T03:39:20.150Z,20.91
2018-06-25T03:40:20.148Z,20.88
2018-06-25T03:41:20.152Z,20.88
2018-06-25T03:42:20.006Z,20.88
2018-06-25T03:43:20.846Z,20.87
2018-06-25T03:44:20.164Z,20.89
2018-06-25T03:45:20.193Z,20.88
2018-06-25T03:46:20.213Z,20.88
2018-06-25T03:47:19.998Z,20.88
2018-06-25T03:48:19.943Z,20.89
2018-06-25T03:49:20.096Z,20.87
2018-06-25T03:50:20.009Z,20.89
2018-06-25T03:51:19.973Z,20.88
2018-06-25T03:52:20.059Z,20.88
2018-06-25T03:53:20.009Z,20.88
2018-06-25T03:54:19.984Z,20.87
2018-06-25T03:55:19.951Z,20.87
2018-06-25T03:56:19.968Z,20.87
2018-06-25T03:57:20.172Z,20.88
2018-06-25T03:58:20.150Z,20.88
2018-06-25T03:59:19.969Z,20.88
2018-06-25T04:00:20.091Z,20.88
2018-06-25T04:01:20.289Z,20.88
2018-06-25T04:02:20.146Z,20.88
2018-06-25T04:03:20.255Z,20.88
2018-06-25T04:04:19.999Z,20.87
2018-06-25T04:05:20.058Z,20.87
2018-06-25T04:06:20.001Z,20.88
2018-06-25T04:07:19.992Z,20.85
2018-06-25T04:08:20.168Z,20.84
2018-06-25T04:09:20.167Z,20.88
2018-06-25T04:10:20.219Z,20.82
2018-06-25T04:11:20.150Z,20.87
2018-06-25T04:12:20.076Z,20.87
2018-06-25T04:13:20.124Z,20.88
2018-06-25T04:14:19.957Z,20.87
2018-06-25T04:15:20.128Z,20.88
2018-06-25T04:16:20.189Z,20.88
2018-06-25T04:17:20.169Z,20.88
2018-06-25T04:18:20.167Z,20.88
2018-06-25T04:19:20.213Z,20.87
2018-06-25T04:20:20.183Z,20.87
2018-06-25T04:21:20.082Z,20.87
2018-06-25T04:22:20.189Z,20.87
2018-06-25T04:23:19.926Z,20.85
2018-06-25T04:24:20.152Z,20.87
2018-06-25T04:25:20.053Z,20.87
2018-06-25T04:26:19.955Z,20.88
2018-06-25T04:27:20.198Z,20.88
2018-06-25T04:28:20.072Z,20.87
2018-06-25T04:29:20.161Z,20.88
2018-06-25T04:30:20.214Z,20.87
2018-06-25T04:31:20.219Z,20.88
2018-06-25T04:32:20.019Z,20.85
2018-06-25T04:33:20.129Z,20.87
2018-06-25T04:34:20.245Z,20.85
2018-06-25T04:35:20.331Z,20.85
2018-06-25T04:36:20.035Z,20.89
2018-06-25T04:37:20.040Z,20.87
2018-06-25T04:38:20.157Z,20.85
2018-06-25T04:39:20.016Z,20.87
2018-06-25T04:40:20.538Z,20.85
2018-06-25T04:41:20.067Z,20.85
2018-06-25T04:42:20.378Z,20.84
2018-06-25T04:43:19.961Z,20.87
2018-06-25T04:44:20.085Z,20.85
2018-06-25T04:45:20.101Z,20.87
2018-06-25T04:46:19.993Z,20.84
2018-06-25T04:47:20.141Z,20.87
2018-06-25T04:48:20.015Z,20.88
2018-06-25T04:49:19.932Z,20.85
2018-06-25T04:50:20.073Z,20.85
2018-06-25T04:51:20.124Z,20.84
2018-06-25T04:52:19.916Z,20.85
2018-06-25T04:53:20.173Z,20.87
2018-06-25T04:54:20.077Z,20.84
2018-06-25T04:55:20.023Z,20.87
2018-06-25T04:56:20.011Z,20.85
2018-06-25T04:57:19.991Z,20.82
2018-06-25T04:58:20.163Z,20.87
2018-06-25T04:59:20.184Z,20.84
2018-06-25T05:00:20.047Z,20.87
2018-06-25T05:01:19.952Z,20.82
2018-06-25T05:02:20.115Z,20.87
2018-06-25T05:03:20.141Z,20.87
2018-06-25T05:04:20.017Z,20.85
2018-06-25T05:05:20.103Z,20.85
2018-06-25T05:06:20.020Z,20.85
2018-06-25T05:07:19.972Z,20.85
2018-06-25T05:08:20.132Z,20.84
2018-06-25T05:09:20.014Z,20.84
2018-06-25T05:10:20.156Z,20.85
2018-06-25T05:11:19.952Z,20.84
2018-06-25T05:12:19.918Z,20.85
2018-06-25T05:13:19.991Z,20.87
2018-06-25T05:14:20.219Z,20.84
2018-06-25T05:15:20.116Z,20.85
2018-06-25T05:16:20.153Z,20.84
2018-06-25T05:17:20.171Z,20.84
2018-06-25T05:18:20.284Z,20.87
2018-06-25T05:19:20.012Z,20.87
2018-06-25T05:20:20.169Z,20.85
2018-06-25T05:21:40.290Z,20.82
2018-06-25T05:22:19.969Z,20.82
2018-06-25T05:23:20.164Z,20.84
2018-06-25T05:24:20.012Z,20.85
2018-06-25T05:25:19.918Z,20.85
2018-06-25T05:26:20.064Z,20.84
2018-06-25T05:27:20.169Z,20.85
2018-06-25T05:28:19.939Z,20.84
2018-06-25T05:29:20.204Z,20.84
2018-06-25T05:30:20.034Z,20.85
2018-06-25T05:31:19.919Z,20.85
2018-06-25T05:32:20.104Z,20.85
2018-06-25T05:33:19.971Z,20.85
2018-06-25T05:34:20.002Z,20.85
2018-06-25T05:35:20.012Z,20.84
2018-06-25T05:36:20.135Z,20.84
2018-06-25T05:37:20.074Z,20.85
2018-06-25T05:38:20.224Z,20.82
2018-06-25T05:39:19.977Z,20.87
2018-06-25T05:40:20.052Z,20.84
2018-06-25T05:41:19.971Z,20.84
2018-06-25T05:42:20.117Z,20.85
2018-06-25T05:43:20.209Z,20.87
2018-06-25T05:44:19.912Z,20.84
2018-06-25T05:45:20.077Z,20.85
2018-06-25T05:46:20.189Z,20.84
2018-06-25T05:47:20.125Z,20.87
2018-06-25T05:48:20.046Z,20.85
2018-06-25T05:49:20.108Z,20.88
2018-06-25T05:50:20.053Z,20.85
2018-06-25T05:51:20.036Z,20.87
2018-06-25T05:52:20.035Z,20.87
2018-06-25T05:53:19.911Z,20.85
2018-06-25T05:54:20.029Z,20.84
2018-06-25T05:55:20.109Z,20.85
2018-06-25T05:56:20.198Z,20.84
2018-06-25T05:57:19.996Z,20.84
2018-06-25T05:58:20.103Z,20.81
2018-06-25T05:59:19.980Z,20.82
2018-06-25T06:00:20.111Z,20.82
2018-06-25T06:01:20.145Z,20.84
2018-06-25T06:02:19.880Z,20.82
2018-06-25T06:03:19.882Z,20.82
2018-06-25T06:04:19.911Z,20.81
2018-06-25T06:05:20.077Z,20.84
2018-06-25T06:06:19.997Z,20.81
2018-06-25T06:07:22.009Z,20.84
2018-06-25T06:08:20.070Z,20.82
2018-06-25T06:09:20.015Z,20.82
2018-06-25T06:10:20.158Z,20.81
2018-06-25T06:11:19.956Z,20.82
2018-06-25T06:12:20.352Z,20.82
2018-06-25T06:13:20.051Z,20.82
2018-06-25T06:14:20.022Z,20.82
2018-06-25T06:15:20.018Z,20.85
2018-06-25T06:16:20.075Z,20.84
2018-06-25T06:17:20.329Z,20.81
2018-06-25T06:18:20.217Z,20.82
2018-06-25T06:19:19.988Z,20.82
2018-06-25T06:20:20.181Z,20.81
2018-06-25T06:21:20.237Z,20.84
2018-06-25T06:22:20.074Z,20.81
2018-06-25T06:23:20.120Z,20.82
2018-06-25T06:24:20.458Z,20.84
2018-06-25T06:25:19.920Z,20.82
2018-06-25T06:26:20.409Z,20.84
2018-06-25T06:27:20.492Z,20.82
2018-06-25T06:28:20.174Z,20.81
2018-06-25T06:29:20.038Z,20.8
2018-06-25T06:30:20.436Z,20.8
2018-06-25T06:31:20.090Z,20.81
2018-06-25T06:32:20.074Z,20.82
2018-06-25T06:33:20.164Z,20.82
2018-06-25T06:34:20.129Z,20.84
2018-06-25T06:35:20.278Z,20.78
2018-06-25T06:36:20.138Z,20.82
2018-06-25T06:37:19.927Z,20.82
2018-06-25T06:38:19.892Z,20.84
2018-06-25T06:39:20.220Z,20.82
2018-06-25T06:40:20.066Z,20.82
2018-06-25T06:41:20.090Z,20.81
2018-06-25T06:42:19.895Z,20.82
2018-06-25T06:43:20.126Z,20.82
2018-06-25T06:44:20.064Z,20.81
2018-06-25T06:45:20.288Z,20.84
2018-06-25T06:46:20.130Z,20.82
2018-06-25T06:47:19.905Z,20.8
2018-06-25T06:48:20.080Z,20.78
2018-06-25T06:49:20.074Z,20.78
2018-06-25T06:50:20.108Z,20.8
2018-06-25T06:51:20.016Z,20.8
2018-06-25T06:52:20.131Z,20.78
2018-06-25T06:53:20.283Z,20.78
2018-06-25T06:54:20.079Z,20.77
2018-06-25T06:55:20.142Z,20.78
2018-06-25T06:56:30.018Z,20.8
2018-06-25T06:57:20.110Z,20.81
2018-06-25T06:58:20.199Z,20.82
2018-06-25T06:59:20.141Z,20.82
2018-06-25T07:00:19.993Z,20.82
2018-06-25T07:01:20.278Z,20.82
2018-06-25T07:02:20.038Z,20.84
2018-06-25T07:03:20.368Z,20.84
2018-06-25T07:04:20.118Z,20.82
2018-06-25T07:05:20.179Z,20.85
2018-06-25T07:06:20.241Z,20.85
2018-06-25T07:07:19.907Z,20.84
2018-06-25T07:08:20.148Z,20.85
2018-06-25T07:09:20.015Z,20.85
2018-06-25T07:10:20.645Z,20.87
2018-06-25T07:11:19.958Z,20.85
2018-06-25T07:12:20.131Z,20.85
2018-06-25T07:13:19.862Z,20.85
2018-06-25T07:14:19.870Z,20.85
2018-06-25T07:15:20.144Z,20.85
2018-06-25T07:16:20.082Z,20.87
2018-06-25T07:17:20.063Z,20.87
2018-06-25T07:18:19.972Z,20.87
2018-06-25T07:19:20.051Z,20.87
2018-06-25T07:20:20.067Z,20.85
2018-06-25T07:21:20.187Z,20.85
2018-06-25T07:22:19.901Z,20.87
2018-06-25T07:23:19.871Z,20.85
2018-06-25T07:24:20.088Z,20.89
2018-06-25T07:25:19.897Z,20.85
2018-06-25T07:26:20.038Z,20.84
2018-06-25T07:27:19.952Z,20.84
2018-06-25T07:28:20.095Z,20.85
2018-06-25T07:29:20.060Z,20.87
2018-06-25T07:30:20.000Z,20.85
2018-06-25T07:31:20.124Z,20.85
2018-06-25T07:32:19.944Z,20.84
2018-06-25T07:33:20.040Z,20.87
2018-06-25T07:34:20.075Z,20.87
2018-06-25T07:35:20.166Z,20.85
2018-06-25T07:36:20.029Z,20.87
2018-06-25T07:37:20.172Z,20.88
2018-06-25T07:38:20.207Z,20.85
2018-06-25T07:39:19.944Z,20.87
2018-06-25T07:40:20.164Z,20.88
2018-06-25T07:41:19.886Z,20.85
2018-06-25T07:42:20.159Z,20.88
2018-06-25T07:43:19.935Z,20.88
2018-06-25T07:44:20.069Z,20.85
2018-06-25T07:45:19.972Z,20.88
2018-06-25T07:46:19.901Z,20.87
2018-06-25T07:47:21.668Z,20.85
2018-06-25T07:48:20.257Z,20.88
2018-06-25T07:49:20.049Z,20.85
2018-06-25T07:50:30.060Z,20.85
2018-06-25T07:51:19.853Z,20.87
2018-06-25T07:52:20.198Z,20.84
2018-06-25T07:53:20.755Z,20.85
2018-06-25T07:54:19.996Z,20.84
2018-06-25T07:55:20.103Z,20.87
2018-06-25T07:56:19.971Z,20.84
2018-06-25T07:57:19.899Z,20.85
2018-06-25T07:58:20.002Z,20.85
2018-06-25T07:59:19.882Z,20.85
2018-06-25T08:00:20.039Z,20.87
2018-06-25T08:01:20.100Z,20.85
2018-06-25T08:02:20.184Z,20.87
2018-06-25T08:03:19.957Z,20.85
2018-06-25T08:04:20.056Z,20.84
2018-06-25T08:05:20.191Z,20.84
2018-06-25T08:06:20.077Z,20.84
2018-06-25T08:07:20.162Z,20.84
2018-06-25T08:08:20.115Z,20.85
2018-06-25T08:09:20.105Z,20.85
2018-06-25T08:10:20.715Z,20.85
2018-06-25T08:11:20.077Z,20.85
2018-06-25T08:12:19.983Z,20.84
2018-06-25T08:13:19.990Z,20.84
2018-06-25T08:14:20.135Z,20.84
2018-06-25T08:15:20.048Z,20.87
2018-06-25T08:16:21.037Z,20.84
2018-06-25T08:17:19.967Z,20.84
2018-06-25T08:18:19.942Z,20.85
2018-06-25T08:19:20.148Z,20.84
2018-06-25T08:20:20.354Z,20.85
2018-06-25T08:21:19.981Z,20.84
2018-06-25T08:22:20.082Z,20.85
2018-06-25T08:23:19.894Z,20.85
2018-06-25T08:24:20.038Z,20.85
2018-06-25T08:25:20.020Z,20.87
2018-06-25T08:26:19.896Z,20.84
2018-06-25T08:27:19.921Z,20.85
2018-06-25T08:28:20.069Z,20.82
2018-06-25T08:29:20.084Z,20.85
2018-06-25T08:30:20.026Z,20.84
2018-06-25T08:31:19.932Z,20.85
2018-06-25T08:32:20.095Z,20.82
2018-06-25T08:33:20.069Z,20.84
2018-06-25T08:34:21.764Z,20.82
2018-06-25T08:35:19.944Z,20.84
2018-06-25T08:36:20.011Z,20.82
2018-06-25T08:37:19.857Z,20.84
2018-06-25T08:38:19.975Z,20.85
2018-06-25T08:39:20.180Z,20.82
2018-06-25T08:40:21.081Z,20.82
2018-06-25T08:41:19.993Z,20.85
2018-06-25T08:42:20.163Z,20.84
2018-06-25T08:43:20.404Z,20.84
2018-06-25T08:44:19.840Z,20.85
2018-06-25T08:45:19.969Z,20.84
2018-06-25T08:46:20.013Z,20.84
2018-06-25T08:47:20.032Z,20.84
2018-06-25T08:48:20.047Z,20.85
2018-06-25T08:49:19.944Z,20.82
2018-06-25T08:50:20.165Z,20.8
2018-06-25T08:51:20.059Z,20.84
2018-06-25T08:52:20.185Z,20.84
2018-06-25T08:53:20.054Z,20.82
2018-06-25T08:54:20.259Z,20.81
2018-06-25T08:55:20.138Z,20.84
2018-06-25T08:56:20.057Z,20.81
2018-06-25T08:57:20.059Z,20.81
2018-06-25T08:58:19.976Z,20.82
2018-06-25T08:59:20.138Z,20.81
2018-06-25T09:00:19.943Z,20.81
2018-06-25T09:01:20.174Z,20.84
2018-06-25T09:02:19.936Z,20.82
2018-06-25T09:03:21.096Z,20.82
2018-06-25T09:04:20.699Z,20.84
2018-06-25T09:05:20.850Z,20.82
2018-06-25T09:06:20.346Z,20.81
2018-06-25T09:07:20.073Z,20.82
2018-06-25T09:08:20.033Z,20.82
2018-06-25T09:09:20.076Z,20.82
2018-06-25T09:10:19.966Z,20.82
2018-06-25T09:11:19.894Z,20.84
2018-06-25T09:12:20.016Z,20.84
2018-06-25T09:13:20.033Z,20.85
2018-06-25T09:14:20.020Z,20.82
2018-06-25T09:15:20.767Z,20.81
2018-06-25T09:16:20.013Z,20.82
2018-06-25T09:17:20.086Z,20.81
2018-06-25T09:18:20.001Z,20.82
2018-06-25T09:19:20.066Z,20.82
2018-06-25T09:20:19.826Z,20.82
2018-06-25T09:21:19.901Z,20.82
2018-06-25T09:22:20.073Z,20.8
2018-06-25T09:23:20.056Z,20.81
2018-06-25T09:24:19.970Z,20.84
2018-06-25T09:25:20.103Z,20.82
2018-06-25T09:26:20.038Z,20.8
2018-06-25T09:27:19.977Z,20.81
2018-06-25T09:28:20.094Z,20.82
2018-06-25T09:29:19.849Z,20.81
2018-06-25T09:30:19.974Z,20.82
2018-06-25T09:31:20.000Z,20.81
2018-06-25T09:32:20.095Z,20.8
2018-06-25T09:33:19.992Z,20.77
2018-06-25T09:34:20.095Z,20.77
2018-06-25T09:35:20.564Z,20.78
2018-06-25T09:36:20.175Z,20.82
2018-06-25T09:37:19.977Z,20.82
2018-06-25T09:38:19.814Z,20.82
2018-06-25T09:39:19.839Z,20.84
2018-06-25T09:40:19.924Z,20.85
2018-06-25T09:41:21.314Z,20.85
2018-06-25T09:42:19.955Z,20.82
2018-06-25T09:43:20.040Z,20.84
2018-06-25T09:44:19.826Z,20.84
2018-06-25T09:45:19.945Z,20.82
2018-06-25T09:46:20.178Z,20.85
2018-06-25T09:47:19.856Z,20.85
2018-06-25T09:48:19.920Z,20.82
2018-06-25T09:49:20.151Z,20.84
2018-06-25T09:50:19.906Z,20.85
2018-06-25T09:51:19.895Z,20.87
2018-06-25T09:52:19.875Z,20.87
2018-06-25T09:53:19.940Z,20.87
2018-06-25T09:54:19.854Z,20.87
2018-06-25T09:55:20.091Z,20.89
2018-06-25T09:56:19.859Z,20.88
2018-06-25T09:57:20.074Z,20.87
2018-06-25T09:58:19.913Z,20.91
2018-06-25T09:59:20.143Z,20.88
2018-06-25T10:00:20.124Z,20.87
2018-06-25T10:01:19.838Z,20.88
2018-06-25T10:02:20.122Z,20.88
2018-06-25T10:03:20.079Z,20.87
2018-06-25T10:04:20.110Z,20.88
2018-06-25T10:05:20.418Z,20.88
2018-06-25T10:06:20.104Z,20.89
2018-06-25T10:07:19.867Z,20.88
2018-06-25T10:08:19.984Z,20.87
2018-06-25T10:09:20.027Z,20.88
2018-06-25T10:10:20.114Z,20.88
2018-06-25T10:11:20.447Z,20.87
2018-06-25T10:12:20.178Z,20.87
2018-06-25T10:13:20.173Z,20.88
2018-06-25T10:14:19.977Z,20.88
2018-06-25T10:15:20.388Z,20.88
2018-06-25T10:16:19.911Z,20.87
2018-06-25T10:17:20.248Z,20.89
2018-06-25T10:18:20.095Z,20.88
2018-06-25T10:19:20.118Z,20.88
2018-06-25T10:20:19.941Z,20.87
2018-06-25T10:21:20.517Z,20.89
2018-06-25T10:22:20.021Z,20.88
2018-06-25T10:23:20.039Z,20.87
2018-06-25T10:24:19.999Z,20.88
2018-06-25T10:25:19.858Z,20.89
2018-06-25T10:26:20.090Z,20.89
2018-06-25T10:27:20.096Z,20.89
2018-06-25T10:28:20.015Z,20.88
2018-06-25T10:29:20.003Z,20.89
2018-06-25T10:30:20.066Z,20.88
2018-06-25T10:31:20.218Z,20.89
2018-06-25T10:32:19.855Z,20.87
2018-06-25T10:33:20.134Z,20.88
2018-06-25T10:34:19.920Z,20.89
2018-06-25T10:35:20.150Z,20.89
2018-06-25T10:36:20.048Z,20.88
2018-06-25T10:37:20.067Z,20.88
2018-06-25T10:38:19.993Z,20.89
2018-06-25T10:39:20.009Z,20.91
2018-06-25T10:40:20.117Z,20.88
2018-06-25T10:41:19.902Z,20.88
2018-06-25T10:42:20.738Z,20.88
2018-06-25T10:43:19.787Z,20.88
2018-06-25T10:44:19.871Z,20.88
2018-06-25T10:45:19.962Z,20.91
2018-06-25T10:46:20.103Z,20.91
2018-06-25T10:47:19.967Z,20.88
2018-06-25T10:48:19.986Z,20.89
2018-06-25T10:49:20.145Z,20.85
2018-06-25T10:50:19.919Z,20.87
2018-06-25T10:51:20.451Z,20.89
2018-06-25T10:52:19.843Z,20.88
2018-06-25T10:53:19.937Z,20.88
2018-06-25T10:54:19.936Z,20.89
2018-06-25T10:55:20.056Z,20.92
2018-06-25T10:56:19.842Z,20.91
2018-06-25T10:57:19.817Z,20.89
2018-06-25T10:58:20.044Z,20.87
2018-06-25T10:59:20.304Z,20.85
2018-06-25T11:00:21.911Z,20.84
2018-06-25T11:01:19.837Z,20.81
2018-06-25T11:02:19.827Z,20.82
2018-06-25T11:03:19.886Z,20.85
2018-06-25T11:04:19.943Z,20.85
2018-06-25T11:05:19.977Z,20.85
2018-06-25T11:06:19.922Z,20.88
2018-06-25T11:07:21.361Z,20.87
2018-06-25T11:08:20.051Z,20.88
2018-06-25T11:09:19.930Z,20.85
2018-06-25T11:10:19.889Z,20.84
2018-06-25T11:11:19.862Z,20.84
2018-06-25T11:12:19.988Z,20.84
2018-06-25T11:13:20.138Z,20.85
2018-06-25T11:14:19.825Z,20.85
2018-06-25T11:15:20.052Z,20.85
2018-06-25T11:16:20.077Z,20.87
2018-06-25T11:17:20.017Z,20.84
2018-06-25T11:18:19.951Z,20.84
2018-06-25T11:19:19.802Z,20.84
2018-06-25T11:20:19.926Z,20.82
2018-06-25T11:21:19.890Z,20.82
2018-06-25T11:22:19.989Z,20.82
2018-06-25T11:23:20.093Z,20.82
2018-06-25T11:24:19.967Z,20.85
2018-06-25T11:25:20.171Z,20.82
2018-06-25T11:26:20.033Z,20.81
2018-06-25T11:27:20.874Z,20.84
2018-06-25T11:28:19.964Z,20.82
2018-06-25T11:29:19.952Z,20.84
2018-06-25T11:30:20.065Z,20.8
2018-06-25T11:31:20.302Z,20.81
2018-06-25T11:32:19.941Z,20.81
2018-06-25T11:33:19.810Z,20.81
2018-06-25T11:34:20.140Z,20.82
2018-06-25T11:35:19.836Z,20.81
2018-06-25T11:36:20.104Z,20.84
2018-06-25T11:37:19.817Z,20.84
2018-06-25T11:38:19.991Z,20.85
2018-06-25T11:39:20.116Z,20.85
2018-06-25T11:40:20.124Z,20.85
2018-06-25T11:41:19.860Z,20.84
2018-06-25T11:42:20.138Z,20.85
2018-06-25T11:43:19.963Z,20.81
2018-06-25T11:44:19.991Z,20.84
2018-06-25T11:45:19.935Z,20.84
2018-06-25T11:46:19.923Z,20.82
2018-06-25T11:47:19.861Z,20.84
2018-06-25T11:48:19.992Z,20.87
2018-06-25T11:49:19.851Z,20.88
2018-06-25T11:50:20.049Z,20.87
2018-06-25T11:51:19.941Z,20.88
2018-06-25T11:52:20.157Z,20.87
2018-06-25T11:53:20.079Z,20.87
2018-06-25T11:54:20.106Z,20.88
2018-06-25T11:55:20.206Z,20.88
2018-06-25T11:56:19.956Z,20.87
2018-06-25T11:57:19.812Z,20.84
2018-06-25T11:58:20.113Z,20.84
2018-06-25T11:59:19.772Z,20.85
2018-06-25T12:00:19.992Z,20.88
2018-06-25T12:01:20.099Z,20.85
2018-06-25T12:02:20.031Z,20.87
2018-06-25T12:03:20.951Z,20.88
2018-06-25T12:04:20.009Z,20.87
2018-06-25T12:05:20.011Z,20.85
2018-06-25T12:06:19.796Z,20.85
2018-06-25T12:07:20.012Z,20.87
2018-06-25T12:08:20.057Z,20.85
2018-06-25T12:09:20.025Z,20.81
2018-06-25T12:10:19.834Z,20.82
2018-06-25T12:11:19.979Z,20.78
2018-06-25T12:12:20.595Z,20.78
2018-06-25T12:13:20.151Z,20.78
2018-06-25T12:14:19.985Z,20.82
2018-06-25T12:15:19.844Z,20.82
2018-06-25T12:16:19.894Z,20.81
2018-06-25T12:17:19.943Z,20.8
2018-06-25T12:18:19.910Z,20.82
2018-06-25T12:19:20.164Z,20.84
2018-06-25T12:20:20.079Z,20.84
2018-06-25T12:21:20.038Z,20.84
2018-06-25T12:22:20.013Z,20.82
2018-06-25T12:23:20.400Z,20.84
2018-06-25T12:24:19.913Z,20.84
2018-06-25T12:25:19.994Z,20.85
2018-06-25T12:26:19.925Z,20.87
2018-06-25T12:27:20.019Z,20.87
2018-06-25T12:28:19.941Z,20.87
2018-06-25T12:29:19.963Z,20.85
2018-06-25T12:30:19.869Z,20.89
2018-06-25T12:31:20.319Z,20.88
2018-06-25T12:32:20.082Z,20.89
2018-06-25T12:33:19.917Z,20.88
2018-06-25T12:34:19.919Z,20.91
2018-06-25T12:35:19.813Z,20.92
2018-06-25T12:36:20.085Z,20.92
2018-06-25T12:37:20.210Z,20.92
2018-06-25T12:38:20.092Z,20.91
2018-06-25T12:39:20.130Z,20.95
2018-06-25T12:40:20.128Z,20.94
2018-06-25T12:41:20.147Z,20.92
2018-06-25T12:42:19.940Z,20.94
2018-06-25T12:43:19.963Z,20.95
2018-06-25T12:44:19.903Z,20.92
2018-06-25T12:45:19.836Z,20.95
2018-06-25T12:46:19.987Z,20.97
2018-06-25T12:47:19.986Z,20.98
2018-06-25T12:48:20.353Z,20.97
2018-06-25T12:49:20.183Z,20.99
2018-06-25T12:50:19.906Z,20.97
2018-06-25T12:51:19.870Z,20.99
2018-06-25T12:52:20.073Z,20.98
2018-06-25T12:53:19.758Z,20.98